aviador You're here:

PAJC Decoded Metar

CHIGNIK BAY in AK, USA
Report Time2018-04-22 13:57:00
UTC Time2018-04-22 14:21:16
Flight Rules ifr IFR
Wind040° at 10 kt
W.Decomp.*RWY 02: 10.0 kt HW 0.7 kt RCW
W.Rank040° ranks 18
Current wind is above 040° avg. (6.9)
Visibility9656 m
Phenomena:Light Rain
Mist
Clouds:Overcast 005 Hf
Ceiling500 ft
Temp04°C (ISA -11)
Dew Point04°C (100% RH)
AAT-0.9°C
QNH991 hPa
Density Alt-404 ft
Elevation49 ft
Report Wrong Elevation
Raw Report
PAJC 221357Z AUTO 04010KT 6SM -RA BR OVC005 04/04 A2926 RMK AO2
SLP910 P0003 T00440039=

Extra information for PAJC:More info

Metar Taf Metar & Taf Last 4 Metars F.Rules Stats Wind Profile Meteogram Temp Stats Airport Information Weather charts Add Link Nearby VenuesMetar ALERT Operation Metar Decoded Social comments

AIRNAV info for PAJC